Time;durP1;ratioP1;P1;durP2;ratioP2;P2;SDS_P1;SDS_P2;PMS_P1;PMS_P2;Temp;Humidity;BMP_temperature;BMP_pressure;BME280_temperature;BME280_humidity;BME280_pressure;Samples;Min_cycle;Max_cycle;Signal;HPM_P1;HPM_P2
2022/07/17 00:00:22;;;;;;;1999.90;999.90;;;;;;;19.79;43.39;96199.75;5028589;28;20035;-69
2022/07/17 00:02:50;;;;;;;1999.90;999.90;;;;;;;19.69;43.22;96165.88;5013483;28;20116;-70
2022/07/17 00:05:16;;;;;;;1999.90;999.90;;;;;;;19.78;43.18;96194.69;5031442;28;20102;-70
2022/07/17 00:07:41;;;;;;;1999.90;999.90;;;;;;;19.66;43.38;96190.88;5028094;28;20029;-69
2022/07/17 00:10:07;;;;;;;1999.90;999.90;;;;;;;19.59;43.32;96177.13;5031452;28;20037;-69
2022/07/17 00:12:32;;;;;;;1999.90;999.90;;;;;;;19.61;43.58;96196.50;5012778;28;20038;-69
2022/07/17 00:14:58;;;;;;;1999.90;999.90;;;;;;;19.49;43.25;96170.22;5031732;28;20025;-70
2022/07/17 00:17:23;;;;;;;1999.90;999.90;;;;;;;19.48;44.11;96182.16;5026248;28;20052;-69
2022/07/17 00:19:49;;;;;;;1999.90;999.90;;;;;;;19.52;43.91;96182.28;5031478;28;20026;-70
2022/07/17 00:22:14;;;;;;;1999.90;999.90;;;;;;;19.51;44.20;96183.41;5030445;28;20029;-69
2022/07/17 00:24:39;;;;;;;1999.90;999.90;;;;;;;19.43;44.43;96170.78;5031092;28;20033;-69
2022/07/17 00:27:05;;;;;;;1999.90;999.90;;;;;;;19.41;44.60;96173.81;5030885;28;20025;-72
2022/07/17 00:29:30;;;;;;;1999.90;999.90;;;;;;;19.43;44.50;96176.97;5028703;28;20109;-69
2022/07/17 00:31:55;;;;;;;1999.90;999.90;;;;;;;19.41;44.71;96173.03;5016394;28;20030;-69
2022/07/17 00:34:21;;;;;;;1999.90;999.90;;;;;;;19.47;44.70;96188.66;5011469;28;20091;-69
2022/07/17 00:36:46;;;;;;;1999.90;999.90;;;;;;;19.29;44.63;96162.22;5028308;28;20104;-69
2022/07/17 00:39:11;;;;;;;1999.90;999.90;;;;;;;19.29;44.62;96165.69;5030510;28;20354;-69
2022/07/17 00:41:37;;;;;;;1999.90;999.90;;;;;;;19.24;44.80;96168.59;5030825;28;20424;-70
2022/07/17 00:44:07;;;;;;;1999.90;999.90;;;;;;;19.36;44.84;96192.94;5030928;28;20466;-70
2022/07/17 00:46:33;;;;;;;1999.90;999.90;;;;;;;19.37;45.13;96186.41;5027158;28;20071;-69
2022/07/17 00:48:58;;;;;;;1999.90;999.90;;;;;;;19.39;44.81;96183.38;5030714;28;20033;-70
2022/07/17 00:51:23;;;;;;;1999.90;999.90;;;;;;;19.32;44.78;96175.81;5029592;28;20730;-69
2022/07/17 00:53:49;;;;;;;1999.90;999.90;;;;;;;19.14;45.31;96159.06;5030105;28;20052;-70
2022/07/17 00:56:17;;;;;;;1999.90;999.90;;;;;;;19.37;45.24;96188.31;5031030;28;20025;-69
2022/07/17 00:58:44;;;;;;;1999.90;999.90;;;;;;;19.41;45.22;96175.75;5029334;28;20104;-69
2022/07/17 01:01:10;;;;;;;1999.90;999.90;;;;;;;19.40;45.11;96182.25;5011468;28;20227;-69
2022/07/17 01:03:35;;;;;;;1999.90;999.90;;;;;;;19.42;45.20;96178.09;5030408;28;20484;-70
2022/07/17 01:06:02;;;;;;;1999.90;999.90;;;;;;;19.49;45.36;96186.41;5030144;28;20021;-70
2022/07/17 01:08:28;;;;;;;1999.90;999.90;;;;;;;19.36;45.27;96171.34;5029309;28;20454;-70
2022/07/17 01:10:53;;;;;;;1999.90;999.90;;;;;;;19.32;45.35;96175.81;5029941;28;20108;-69
2022/07/17 01:13:18;;;;;;;1999.90;999.90;;;;;;;19.42;45.45;96190.81;5030139;28;20071;-70
2022/07/17 01:15:44;;;;;;;1999.90;999.90;;;;;;;19.28;45.88;96176.81;5029775;28;20036;-70
2022/07/17 01:18:13;;;;;;;1999.90;999.90;;;;;;;19.33;45.59;96180.09;5029174;28;20030;-70
2022/07/17 01:20:42;;;;;;;1999.90;999.90;;;;;;;19.21;45.68;96180.88;5030156;28;20381;-69
2022/07/17 01:23:08;;;;;;;1999.90;999.90;;;;;;;19.21;45.78;96178.16;5028139;28;20474;-69
2022/07/17 01:25:34;;;;;;;1999.90;999.90;;;;;;;19.20;45.68;96178.50;5010822;28;20048;-70
2022/07/17 01:28:00;;;;;;;1999.90;999.90;;;;;;;19.13;45.64;96184.44;5011278;28;20026;-69
2022/07/17 01:30:25;;;;;;;1999.90;999.90;;;;;;;19.09;46.21;96191.63;5029627;28;20037;-69
2022/07/17 01:32:50;;;;;;;1999.90;999.90;;;;;;;18.94;46.39;96171.47;5029290;28;20181;-69
2022/07/17 01:35:16;;;;;;;1999.90;999.90;;;;;;;18.95;46.47;96172.25;5027243;28;20039;-70
2022/07/17 01:37:43;;;;;;;1999.90;999.90;;;;;;;18.99;46.55;96175.88;5027935;28;20025;-69
2022/07/17 01:40:12;;;;;;;1999.90;999.90;;;;;;;18.87;46.75;96171.19;5029028;28;20378;-69
2022/07/17 01:42:39;;;;;;;1999.90;999.90;;;;;;;18.85;46.85;96184.25;5010924;28;20432;-69
2022/07/17 01:45:05;;;;;;;1999.90;999.90;;;;;;;18.85;47.13;96180.75;5011726;28;20446;-70
2022/07/17 01:47:30;;;;;;;1999.90;999.90;;;;;;;18.88;47.14;96183.56;5028410;28;20029;-70
2022/07/17 01:49:57;;;;;;;1999.90;999.90;;;;;;;18.92;47.35;96186.38;5029173;28;20029;-69
2022/07/17 01:52:24;;;;;;;1999.90;999.90;;;;;;;18.93;47.66;96190.66;5027853;28;20041;-69
2022/07/17 01:54:50;;;;;;;1999.90;999.90;;;;;;;18.79;47.50;96174.78;5012187;28;20083;-69
2022/07/17 01:57:15;;;;;;;1999.90;999.90;;;;;;;18.81;47.51;96182.53;5011521;28;20067;-69
2022/07/17 01:59:41;;;;;;;1999.90;999.90;;;;;;;18.76;47.82;96183.53;5028936;28;20025;-69
2022/07/17 02:02:07;;;;;;;1999.90;999.90;;;;;;;18.65;47.99;96185.03;5010995;28;20029;-69
2022/07/17 02:04:35;;;;;;;1999.90;999.90;;;;;;;18.68;47.95;96193.28;5029757;28;20033;-69
2022/07/17 02:07:01;;;;;;;1999.90;999.90;;;;;;;18.72;48.44;96185.28;5026419;28;20029;-68
2022/07/17 02:09:26;;;;;;;1999.90;999.90;;;;;;;18.67;48.15;96183.56;5029364;28;20029;-69
2022/07/17 02:11:52;;;;;;;1999.90;999.90;;;;;;;18.53;48.16;96161.50;5028655;28;20025;-69
2022/07/17 02:14:17;;;;;;;1999.90;999.90;;;;;;;18.60;48.14;96177.91;5029488;28;20032;-69
2022/07/17 02:16:43;;;;;;;1999.90;999.90;;;;;;;18.51;48.47;96169.13;5027704;28;20500;-70
2022/07/17 02:19:08;;;;;;;1999.90;999.90;;;;;;;18.48;48.52;96175.19;5026756;28;20028;-69
2022/07/17 02:21:33;;;;;;;1999.90;999.90;;;;;;;18.50;48.85;96170.22;5028512;28;20030;-69
2022/07/17 02:23:59;;;;;;;1999.90;999.90;;;;;;;18.43;48.47;96161.91;5026489;28;20037;-69
2022/07/17 02:26:24;;;;;;;1999.90;999.90;;;;;;;18.91;47.42;96165.94;5027919;28;20473;-69
2022/07/17 02:28:49;;;;;;;1999.90;999.90;;;;;;;18.94;47.11;96159.91;5028776;28;20036;-68
2022/07/17 02:31:15;;;;;;;1999.90;999.90;;;;;;;18.91;47.53;96163.25;5028123;28;20095;-69
2022/07/17 02:33:40;;;;;;;1999.90;999.90;;;;;;;19.01;47.62;96170.13;5029126;28;20080;-69
2022/07/17 02:36:06;;;;;;;1999.90;999.90;;;;;;;19.08;47.31;96176.56;5010284;28;20033;-72
2022/07/17 02:38:31;;;;;;;1999.90;999.90;;;;;;;19.06;47.21;96168.03;5008841;28;20032;-69
2022/07/17 02:40:57;;;;;;;1999.90;999.90;;;;;;;19.11;47.01;96180.50;5027699;28;20100;-69
2022/07/17 02:43:22;;;;;;;1999.90;999.90;;;;;;;19.02;47.17;96174.41;5017339;28;20110;-69
2022/07/17 02:45:47;;;;;;;1999.90;999.90;;;;;;;18.95;47.57;96169.56;5015275;28;20030;-72
2022/07/17 02:48:13;;;;;;;1999.90;999.90;;;;;;;18.92;47.56;96181.00;5027737;28;20080;-71
2022/07/17 02:50:38;;;;;;;1999.90;999.90;;;;;;;18.88;47.75;96169.28;5028663;28;20562;-70
2022/07/17 02:53:03;;;;;;;1999.90;999.90;;;;;;;18.85;48.38;96172.66;5011466;28;20029;-71
2022/07/17 02:55:28;;;;;;;1999.90;999.90;;;;;;;18.86;48.11;96172.34;5032482;28;21197;-71
2022/07/17 02:57:54;;;;;;;1999.90;999.90;;;;;;;18.89;47.82;96168.19;5014805;28;20025;-71
2022/07/17 03:00:20;;;;;;;1999.90;999.90;;;;;;;18.91;48.03;96166.72;5031715;28;20577;-72
2022/07/17 03:02:46;;;;;;;1999.90;999.90;;;;;;;18.92;47.47;96176.38;5032653;28;20026;-71
2022/07/17 03:05:13;;;;;;;1999.90;999.90;;;;;;;18.87;47.73;96173.91;5032141;28;20053;-71
2022/07/17 03:07:40;;;;;;;1999.90;999.90;;;;;;;18.90;47.49;96175.16;5031385;28;20053;-70
2022/07/17 03:10:06;;;;;;;1999.90;999.90;;;;;;;18.79;47.58;96179.38;5039395;28;20079;-71
2022/07/17 03:12:31;;;;;;;1999.90;999.90;;;;;;;18.67;47.64;96183.56;5052389;28;20029;-71
2022/07/17 03:14:57;;;;;;;1999.90;999.90;;;;;;;18.65;47.82;96177.72;5038072;28;20091;-71
2022/07/17 03:17:22;;;;;;;1999.90;999.90;;;;;;;18.66;47.84;96178.50;5029738;28;20037;-70
2022/07/17 03:19:47;;;;;;;1999.90;999.90;;;;;;;18.64;47.83;96178.06;5033053;28;20501;-71
2022/07/17 03:22:13;;;;;;;1999.90;999.90;;;;;;;18.68;47.79;96179.81;5016779;28;20038;-71
2022/07/17 03:24:38;;;;;;;1999.90;999.90;;;;;;;18.65;47.94;96169.63;5012789;28;20470;-70
2022/07/17 03:27:03;;;;;;;1999.90;999.90;;;;;;;18.53;48.11;96166.91;5039951;28;20620;-70
2022/07/17 03:29:29;;;;;;;1999.90;999.90;;;;;;;18.65;48.34;96172.34;5043389;28;20060;-71
2022/07/17 03:31:54;;;;;;;1999.90;999.90;;;;;;;18.71;47.92;96172.94;5031276;28;20036;-71
2022/07/17 03:34:19;;;;;;;1999.90;999.90;;;;;;;18.83;47.83;96180.28;5030560;28;20037;-70
2022/07/17 03:36:45;;;;;;;1999.90;999.90;;;;;;;18.89;47.58;96168.19;5014562;28;20087;-70
2022/07/17 03:39:10;;;;;;;1999.90;999.90;;;;;;;19.04;47.42;96174.84;5031487;28;20060;-70
2022/07/17 03:41:36;;;;;;;1999.90;999.90;;;;;;;19.06;47.13;96168.03;5032391;28;20071;-70
2022/07/17 03:44:01;;;;;;;1999.90;999.90;;;;;;;19.23;46.86;96170.53;5027749;28;20041;-70
2022/07/17 03:46:27;;;;;;;1999.90;999.90;;;;;;;19.28;46.70;96164.13;5023174;28;20022;-70
2022/07/17 03:48:52;;;;;;;1999.90;999.90;;;;;;;19.42;46.25;96164.59;5030523;28;20029;-71
2022/07/17 03:51:17;;;;;;;1999.90;999.90;;;;;;;19.56;46.15;96168.91;5031450;28;20032;-71
2022/07/17 03:53:42;;;;;;;1999.90;999.90;;;;;;;19.65;45.50;96166.91;5030967;28;20021;-71
2022/07/17 03:56:08;;;;;;;1999.90;999.90;;;;;;;19.70;45.51;96158.56;5030504;28;20022;-71
2022/07/17 03:58:34;;;;;;;1999.90;999.90;;;;;;;19.78;44.83;96165.00;5031210;28;20049;-70
2022/07/17 04:00:59;;;;;;;1999.90;999.90;;;;;;;19.77;44.82;96168.81;5030627;28;20112;-70
2022/07/17 04:03:25;;;;;;;1999.90;999.90;;;;;;;19.65;45.00;96161.50;5033114;28;20368;-70
2022/07/17 04:05:50;;;;;;;1999.90;999.90;;;;;;;19.69;44.95;96175.91;5032858;28;20447;-70
2022/07/17 04:08:16;;;;;;;1999.90;999.90;;;;;;;19.67;44.99;96173.53;5022316;28;20084;-70
2022/07/17 04:10:42;;;;;;;1999.90;999.90;;;;;;;19.66;44.75;96163.88;5039087;28;20044;-72
2022/07/17 04:13:08;;;;;;;1999.90;999.90;;;;;;;19.90;44.73;96183.88;5031319;28;20115;-71
2022/07/17 04:18:19;;;;;;;1999.90;999.90;;;;;;;20.41;43.82;96176.16;5030087;28;20496;-71
2022/07/17 04:20:44;;;;;;;1999.90;999.90;;;;;;;20.69;42.51;96182.44;5030059;28;20379;-69
2022/07/17 04:23:11;;;;;;;1999.90;999.90;;;;;;;20.98;42.11;96173.16;5029496;28;20040;-69
2022/07/17 04:25:36;;;;;;;1999.90;999.90;;;;;;;21.31;41.30;96179.47;5029897;28;20144;-69
2022/07/17 04:28:02;;;;;;;1999.90;999.90;;;;;;;21.61;41.17;96180.63;5041697;28;20128;-69
2022/07/17 04:30:27;;;;;;;1999.90;999.90;;;;;;;21.81;40.07;96176.09;5043926;28;20038;-69
2022/07/17 04:32:52;;;;;;;1999.90;999.90;;;;;;;22.03;40.20;96182.78;5029230;28;20029;-69
2022/07/17 04:35:18;;;;;;;1999.90;999.90;;;;;;;22.23;39.17;96189.84;5031043;28;20428;-69
2022/07/17 04:37:43;;;;;;;1999.90;999.90;;;;;;;22.43;38.93;96189.91;5030181;28;20108;-69
2022/07/17 04:40:11;;;;;;;1999.90;999.90;;;;;;;22.65;38.93;96181.06;5031012;28;20079;-69
2022/07/17 04:42:36;;;;;;;1999.90;999.90;;;;;;;22.91;38.25;96185.09;5030514;28;20482;-70
2022/07/17 04:45:02;;;;;;;1999.90;999.90;;;;;;;22.81;37.30;96143.00;5013277;28;20032;-71
2022/07/17 04:47:27;;;;;;;1999.90;999.90;;;;;;;23.29;36.88;96185.06;5029979;28;20394;-69
2022/07/17 04:49:53;;;;;;;1999.90;999.90;;;;;;;23.51;37.03;96188.13;5030587;28;20034;-69
2022/07/17 04:52:18;;;;;;;1999.90;999.90;;;;;;;23.63;36.59;96174.41;5030531;28;20377;-70
2022/07/17 04:54:43;;;;;;;1999.90;999.90;;;;;;;23.85;35.49;96189.09;5027951;28;20040;-71
2022/07/17 04:57:08;;;;;;;1999.90;999.90;;;;;;;23.96;35.24;96189.31;5030028;28;20398;-71
2022/07/17 04:59:36;;;;;;;1999.90;999.90;;;;;;;23.99;35.13;96185.84;5013390;28;20030;-69
2022/07/17 05:02:02;;;;;;;1999.90;999.90;;;;;;;24.10;34.57;96186.78;5026987;28;20043;-69
2022/07/17 05:04:27;;;;;;;1999.90;999.90;;;;;;;24.19;35.22;96195.47;5030066;28;20055;-70
2022/07/17 05:06:52;;;;;;;1999.90;999.90;;;;;;;24.07;34.54;96185.59;5011381;28;20591;-70
2022/07/17 05:09:18;;;;;;;1999.90;999.90;;;;;;;24.11;34.69;96182.94;5004229;28;20026;-69
2022/07/17 05:11:43;;;;;;;1999.90;999.90;;;;;;;24.10;34.82;96171.25;5029805;28;20454;-70
2022/07/17 05:14:08;;;;;;;1999.90;999.90;;;;;;;24.16;34.69;96179.91;5030410;28;20021;-69
2022/07/17 05:16:33;;;;;;;1999.90;999.90;;;;;;;24.19;34.81;96178.38;5038199;28;20025;-69
2022/07/17 05:18:59;;;;;;;1999.90;999.90;;;;;;;24.22;34.18;96167.56;5029383;28;20029;-69
2022/07/17 05:21:24;;;;;;;1999.90;999.90;;;;;;;24.34;34.43;96180.91;5028907;28;20025;-68
2022/07/17 05:23:50;;;;;;;1999.90;999.90;;;;;;;24.32;34.39;96163.41;5029666;28;20041;-69
2022/07/17 05:26:15;;;;;;;1999.90;999.90;;;;;;;24.56;34.64;96181.22;5029598;28;20036;-70
2022/07/17 05:28:40;;;;;;;1999.90;999.90;;;;;;;24.64;33.92;96180.19;5030992;28;20114;-69
2022/07/17 05:31:06;;;;;;;1999.90;999.90;;;;;;;24.34;33.70;96177.41;5026373;28;20033;-69
2022/07/17 05:33:31;;;;;;;1999.90;999.90;;;;;;;24.55;34.04;96180.44;5011780;28;20027;-68
2022/07/17 05:35:57;;;;;;;1999.90;999.90;;;;;;;24.64;33.91;96183.69;5029632;28;20105;-69
2022/07/17 05:38:22;;;;;;;1999.90;999.90;;;;;;;24.67;33.89;96182.19;5011110;28;20025;-69
2022/07/17 05:40:47;;;;;;;1999.90;999.90;;;;;;;24.70;33.96;96186.88;5012402;28;20495;-70
2022/07/17 05:43:12;;;;;;;1999.90;999.90;;;;;;;24.69;34.10;96176.34;5029958;28;20547;-69
2022/07/17 05:45:38;;;;;;;1999.90;999.90;;;;;;;24.61;34.02;96175.47;5027910;28;20052;-69
2022/07/17 05:48:06;;;;;;;1999.90;999.90;;;;;;;24.78;34.05;96177.66;5030111;28;20055;-69
2022/07/17 05:50:31;;;;;;;1999.90;999.90;;;;;;;24.79;33.88;96173.75;5027414;28;20466;-69
2022/07/17 05:52:57;;;;;;;1999.90;999.90;;;;;;;24.87;34.02;96180.06;5029451;28;20124;-69
2022/07/17 05:55:22;;;;;;;1999.90;999.90;;;;;;;24.87;34.12;96178.13;5027236;28;20029;-69
2022/07/17 05:57:47;;;;;;;1999.90;999.90;;;;;;;24.91;34.39;96180.88;5012246;28;20145;-70
2022/07/17 06:00:13;;;;;;;1999.90;999.90;;;;;;;24.82;33.88;96183.88;5027241;28;20113;-70
2022/07/17 06:02:38;;;;;;;1999.90;999.90;;;;;;;24.55;34.08;96177.72;5027998;28;20041;-71
2022/07/17 06:05:04;;;;;;;1999.90;999.90;;;;;;;24.34;34.50;96193.72;5019660;28;20103;-69
2022/07/17 06:07:29;;;;;;;1999.90;999.90;;;;;;;24.43;34.58;96188.06;5010297;28;20373;-72
2022/07/17 06:09:55;;;;;;;1999.90;999.90;;;;;;;24.60;34.63;96182.06;5035352;28;20029;-69
2022/07/17 06:12:20;;;;;;;1999.90;999.90;;;;;;;24.64;34.41;96172.03;5040983;28;20037;-69
2022/07/17 06:14:45;;;;;;;1999.90;999.90;;;;;;;24.51;34.03;96162.50;5029768;28;20074;-69
2022/07/17 06:17:10;;;;;;;1999.90;999.90;;;;;;;24.74;34.38;96181.47;5028855;28;20026;-69
2022/07/17 06:19:36;;;;;;;1999.90;999.90;;;;;;;24.70;34.00;96184.13;5027621;28;20035;-69
2022/07/17 06:22:01;;;;;;;1999.90;999.90;;;;;;;24.80;33.88;96180.00;5028567;28;20037;-64
2022/07/17 06:24:26;;;;;;;1999.90;999.90;;;;;;;24.88;34.08;96176.22;5028382;28;20024;-72
2022/07/17 06:26:52;;;;;;;1999.90;999.90;;;;;;;24.88;33.76;96179.72;5028736;28;20025;-67
2022/07/17 06:29:17;;;;;;;1999.90;999.90;;;;;;;24.80;33.36;96180.75;5029410;28;20426;-74
2022/07/17 06:31:42;;;;;;;1999.90;999.90;;;;;;;24.36;33.76;96166.97;5027261;28;20708;-71
2022/07/17 06:34:08;;;;;;;1999.90;999.90;;;;;;;24.68;33.57;96178.28;5028687;28;20041;-71
2022/07/17 06:36:33;;;;;;;1999.90;999.90;;;;;;;24.97;33.43;96194.94;5011627;28;20681;-71
2022/07/17 06:38:58;;;;;;;1999.90;999.90;;;;;;;25.11;32.60;96195.16;5026783;28;20021;-71
2022/07/17 06:41:24;;;;;;;1999.90;999.90;;;;;;;25.22;32.54;96190.59;5029512;28;20053;-70
2022/07/17 06:43:49;;;;;;;1999.90;999.90;;;;;;;25.32;31.95;96195.38;5011127;28;20112;-71
2022/07/17 06:46:15;;;;;;;1999.90;999.90;;;;;;;25.34;31.60;96186.84;5011284;28;20540;-71
2022/07/17 06:48:40;;;;;;;1999.90;999.90;;;;;;;25.19;31.38;96191.34;5028036;28;20234;-71
2022/07/17 06:51:05;;;;;;;1999.90;999.90;;;;;;;24.95;31.58;96197.28;5011787;28;20033;-71
2022/07/17 06:53:31;;;;;;;1999.90;999.90;;;;;;;25.02;31.71;96192.69;5028122;28;20025;-70
2022/07/17 06:55:56;;;;;;;1999.90;999.90;;;;;;;25.04;32.13;96195.84;5039228;28;20029;-70
2022/07/17 06:58:21;;;;;;;1999.90;999.90;;;;;;;24.72;32.16;96200.09;5044276;28;20438;-72
2022/07/17 07:00:47;;;;;;;1999.90;999.90;;;;;;;25.07;31.61;96199.75;5027563;28;20037;-71
2022/07/17 07:03:12;;;;;;;1999.90;999.90;;;;;;;25.08;31.65;96199.41;5028770;28;20029;-70
2022/07/17 07:05:37;;;;;;;1999.90;999.90;;;;;;;25.19;31.33;96199.53;5029520;28;20121;-71
2022/07/17 07:08:03;;;;;;;1999.90;999.90;;;;;;;25.20;31.49;96205.75;5028388;28;20097;-71
2022/07/17 07:10:28;;;;;;;1999.90;999.90;;;;;;;25.19;31.12;96204.97;5011358;28;20029;-71
2022/07/17 07:12:54;;;;;;;1999.90;999.90;;;;;;;25.24;31.76;96192.97;5009213;28;20519;-71
2022/07/17 07:15:19;;;;;;;1999.90;999.90;;;;;;;25.44;30.79;96190.81;5029616;28;20037;-71
2022/07/17 07:17:44;;;;;;;1999.90;999.90;;;;;;;25.28;30.99;96205.44;5029527;28;20052;-72
2022/07/17 07:20:10;;;;;;;1999.90;999.90;;;;;;;25.58;30.91;96199.13;5029485;28;20030;-72
2022/07/17 07:22:36;;;;;;;1999.90;999.90;;;;;;;25.53;30.70;96192.06;5028206;28;20045;-72
2022/07/17 07:25:02;;;;;;;1999.90;999.90;;;;;;;25.61;29.40;96201.88;5027668;28;20030;-75
2022/07/17 07:27:27;;;;;;;1999.90;999.90;;;;;;;25.52;30.23;96206.06;5029528;28;20025;-74
2022/07/17 07:29:53;;;;;;;1999.90;999.90;;;;;;;24.99;30.27;96198.88;5011805;28;20094;-74
2022/07/17 07:32:18;;;;;;;1999.90;999.90;;;;;;;24.93;30.10;96208.53;5029023;28;20094;-71
2022/07/17 07:34:44;;;;;;;1999.90;999.90;;;;;;;25.34;30.14;96203.19;5007540;28;20030;-74
2022/07/17 07:37:09;;;;;;;1999.90;999.90;;;;;;;25.38;29.53;96203.97;5009534;28;20076;-74
2022/07/17 07:39:34;;;;;;;1999.90;999.90;;;;;;;25.25;29.63;96194.53;5022075;28;20026;-72
2022/07/17 07:42:00;;;;;;;1999.90;999.90;;;;;;;25.35;29.54;96202.03;5032646;28;20029;-69
2022/07/17 07:44:25;;;;;;;1999.90;999.90;;;;;;;25.05;29.28;96191.16;5032147;28;20052;-72
2022/07/17 07:46:51;;;;;;;1999.90;999.90;;;;;;;25.43;29.34;96195.47;5030656;28;20037;-73
2022/07/17 07:49:17;;;;;;;1999.90;999.90;;;;;;;25.55;28.93;96199.88;5014941;28;20018;-72
2022/07/17 07:51:42;;;;;;;1999.90;999.90;;;;;;;25.64;28.79;96198.44;5032965;28;20373;-72
2022/07/17 07:54:08;;;;;;;1999.90;999.90;;;;;;;24.58;30.48;96184.38;5030872;28;20029;-72
2022/07/17 07:56:34;;;;;;;1999.90;999.90;;;;;;;25.31;29.10;96203.94;5031426;28;20033;-72
2022/07/17 07:59:00;;;;;;;1999.90;999.90;;;;;;;25.39;28.72;96194.69;5032858;28;20029;-72
2022/07/17 08:01:25;;;;;;;1999.90;999.90;;;;;;;25.27;28.63;96203.88;5032379;28;20496;-72
2022/07/17 08:03:50;;;;;;;1999.90;999.90;;;;;;;25.67;28.31;96205.84;5031098;28;20029;-70
2022/07/17 08:06:16;;;;;;;1999.90;999.90;;;;;;;25.96;27.82;96210.78;5014577;28;20351;-71
2022/07/17 08:08:41;;;;;;;1999.90;999.90;;;;;;;25.79;28.03;96212.19;5012978;28;20164;-70
2022/07/17 08:11:06;;;;;;;1999.90;999.90;;;;;;;26.04;27.88;96191.34;5026494;28;20383;-71
2022/07/17 08:13:32;;;;;;;1999.90;999.90;;;;;;;26.17;27.53;96202.75;5013929;28;20124;-71
2022/07/17 08:15:58;;;;;;;1999.90;999.90;;;;;;;25.64;28.14;96200.34;5013974;28;20032;-70
2022/07/17 08:18:25;;;;;;;1999.90;999.90;;;;;;;24.99;29.36;96195.38;5014256;28;20733;-72
2022/07/17 08:20:50;;;;;;;1999.90;999.90;;;;;;;26.09;27.62;96198.41;5014185;28;20250;-70
2022/07/17 08:23:16;;;;;;;1999.90;999.90;;;;;;;26.46;27.23;96208.41;5029715;28;20029;-71
2022/07/17 08:25:41;;;;;;;1999.90;999.90;;;;;;;26.24;26.72;96205.53;5030651;28;20037;-71
2022/07/17 08:28:06;;;;;;;1999.90;999.90;;;;;;;25.88;27.71;96205.25;5030938;28;20478;-71
2022/07/17 08:30:34;;;;;;;1999.90;999.90;;;;;;;25.40;27.21;96216.09;5031915;28;20029;-72
2022/07/17 08:33:00;;;;;;;1999.90;999.90;;;;;;;25.49;27.39;96212.25;5030477;28;20029;-71
2022/07/17 08:35:26;;;;;;;1999.90;999.90;;;;;;;25.88;27.17;96216.16;5031145;28;20032;-70
2022/07/17 08:37:52;;;;;;;1999.90;999.90;;;;;;;25.89;27.17;96217.72;5014180;28;20029;-71
2022/07/17 08:40:27;;;;;;;1999.90;999.90;;;;;;;26.22;26.88;96224.22;5028434;28;20083;-71
2022/07/17 08:42:54;;;;;;;1999.90;999.90;;;;;;;26.05;27.10;96220.22;5030046;28;20029;-71
2022/07/17 08:45:20;;;;;;;1999.90;999.90;;;;;;;25.86;27.23;96228.63;5030537;28;20466;-71
2022/07/17 08:47:45;;;;;;;1999.90;999.90;;;;;;;26.15;27.04;96213.25;5031499;28;20040;-71
2022/07/17 08:50:12;;;;;;;1999.90;999.90;;;;;;;26.49;26.59;96230.28;5030914;28;20025;-71
2022/07/17 08:52:39;;;;;;;1999.90;999.90;;;;;;;26.55;26.71;96233.41;5012354;28;20048;-71
2022/07/17 08:55:12;;;;;;;1999.90;999.90;;;;;;;26.08;26.39;96213.22;5029961;28;20041;-71
2022/07/17 08:57:39;;;;;;;1999.90;999.90;;;;;;;26.25;27.14;96233.56;5030252;28;20464;-71
2022/07/17 09:00:05;;;;;;;1999.90;999.90;;;;;;;26.26;27.19;96226.94;5030249;28;20029;-71
2022/07/17 09:02:30;;;;;;;1999.90;999.90;;;;;;;26.26;26.51;96222.31;5011838;28;20060;-71
2022/07/17 09:04:56;;;;;;;1999.90;999.90;;;;;;;26.13;26.56;96230.00;5030973;28;20053;-71
2022/07/17 09:07:21;;;;;;;1999.90;999.90;;;;;;;25.75;27.28;96222.28;5013557;28;20032;-72
2022/07/17 09:09:51;;;;;;;1999.90;999.90;;;;;;;26.36;26.93;96234.44;5028581;28;20167;-71
2022/07/17 09:12:16;;;;;;;1999.90;999.90;;;;;;;26.00;26.70;96231.47;5029341;28;20032;-71
2022/07/17 09:14:42;;;;;;;1999.90;999.90;;;;;;;26.51;26.55;96225.19;5030939;28;20029;-72
2022/07/17 09:17:09;;;;;;;1999.90;999.90;;;;;;;26.69;26.31;96217.91;5012410;28;20048;-71
2022/07/17 09:19:42;;;;;;;1999.90;999.90;;;;;;;26.34;26.13;96209.50;5013203;28;20025;-71
2022/07/17 09:22:16;;;;;;;1999.90;999.90;;;;;;;26.47;26.49;96210.78;5012098;28;20044;-73
2022/07/17 09:24:45;;;;;;;1999.90;999.90;;;;;;;25.79;26.93;96225.81;5028400;28;20037;-71
2022/07/17 09:27:13;;;;;;;1999.90;999.90;;;;;;;26.12;26.86;96214.81;5012335;28;20022;-71
2022/07/17 09:29:59;;;;;;;1999.90;999.90;;;;;;;26.39;26.90;96220.81;5030713;28;20026;-71
2022/07/17 09:32:29;;;;;;;1999.90;999.90;;;;;;;26.47;26.18;96218.19;5029533;28;20026;-72
2022/07/17 09:34:56;;;;;;;1999.90;999.90;;;;;;;26.35;26.24;96216.50;5029755;28;20021;-71
2022/07/17 09:37:23;;;;;;;1999.90;999.90;;;;;;;26.52;26.16;96231.47;5030659;28;20024;-71
2022/07/17 09:39:49;;;;;;;1999.90;999.90;;;;;;;26.91;24.97;96220.72;5028529;28;20080;-72
2022/07/17 09:42:31;;;;;;;1999.90;999.90;;;;;;;27.10;24.80;96220.47;5012304;28;20034;-71
2022/07/17 09:45:06;;;;;;;1999.90;999.90;;;;;;;27.09;24.91;96229.03;5030209;28;20033;-72
2022/07/17 09:47:35;;;;;;;1999.90;999.90;;;;;;;26.99;25.63;96224.28;5030760;28;20026;-72
2022/07/17 09:50:02;;;;;;;1999.90;999.90;;;;;;;27.20;25.08;96232.59;5012026;28;20027;-71
2022/07/17 09:52:30;;;;;;;1999.90;999.90;;;;;;;27.25;25.15;96229.47;5028721;28;20026;-72
2022/07/17 09:54:56;;;;;;;1999.90;999.90;;;;;;;27.61;24.62;96204.97;5028109;28;20025;-71
2022/07/17 09:57:28;;;;;;;1999.90;999.90;;;;;;;26.88;24.92;96230.50;5028832;28;20033;-71
2022/07/17 09:59:56;;;;;;;1999.90;999.90;;;;;;;27.11;24.70;96227.47;5029169;28;20018;-71
2022/07/17 10:02:21;;;;;;;1999.90;999.90;;;;;;;25.51;26.39;96227.09;5015150;28;20034;-72
2022/07/17 10:04:48;;;;;;;1999.90;999.90;;;;;;;26.31;26.07;96223.88;5021088;28;20033;-71
2022/07/17 10:07:13;;;;;;;1999.90;999.90;;;;;;;26.68;25.36;96201.94;5030235;28;20041;-71
2022/07/17 10:09:39;;;;;;;1999.90;999.90;;;;;;;26.61;24.72;96234.63;5011501;28;20036;-72
2022/07/17 10:12:06;;;;;;;1999.90;999.90;;;;;;;26.79;24.68;96216.41;5027270;28;20037;-71
2022/07/17 10:14:33;;;;;;;1999.90;999.90;;;;;;;27.13;24.68;96206.03;5028710;28;20115;-71
2022/07/17 10:17:10;;;;;;;1999.90;999.90;;;;;;;27.52;24.29;96216.28;5028854;28;20030;-71
2022/07/17 10:20:05;;;;;;;1999.90;999.90;;;;;;;26.86;24.54;96224.63;5012373;28;20033;-73
2022/07/17 10:22:42;;;;;;;1999.90;999.90;;;;;;;27.01;24.69;96227.41;5016656;28;20045;-72
2022/07/17 10:25:13;;;;;;;1999.90;999.90;;;;;;;27.36;24.15;96233.03;5009480;28;20163;-72
2022/07/17 10:27:49;;;;;;;1999.90;999.90;;;;;;;27.58;24.17;96230.34;5010243;28;20026;-73
2022/07/17 10:30:22;;;;;;;1999.90;999.90;;;;;;;27.54;23.81;96222.16;5010044;28;20034;-72
2022/07/17 10:32:53;;;;;;;1999.90;999.90;;;;;;;26.40;24.62;96208.75;5009415;28;20052;-73
2022/07/17 10:35:18;;;;;;;1999.90;999.90;;;;;;;27.38;24.73;96240.81;5027432;28;20482;-72
2022/07/17 10:37:43;;;;;;;1999.90;999.90;;;;;;;27.51;23.29;96224.88;5027146;28;20033;-71
2022/07/17 10:40:19;;;;;;;1999.90;999.90;;;;;;;27.14;24.17;96236.88;5029734;28;20022;-70
2022/07/17 10:42:46;;;;;;;1999.90;999.90;;;;;;;27.57;23.54;96236.97;5029028;28;20060;-70
2022/07/17 10:45:16;;;;;;;1999.90;999.90;;;;;;;27.64;22.88;96229.59;5012188;28;20486;-70
2022/07/17 10:47:55;;;;;;;1999.90;999.90;;;;;;;27.95;22.56;96239.00;5029036;28;20025;-70
2022/07/17 10:50:25;;;;;;;1999.90;999.90;;;;;;;28.28;21.91;96226.09;5012069;28;20040;-71
2022/07/17 10:53:20;;;;;;;1999.90;999.90;;;;;;;27.84;22.34;96232.72;5028153;28;20022;-69